Time;durP1;ratioP1;P1;durP2;ratioP2;P2;SDS_P1;SDS_P2;PMS_P1;PMS_P2;Temp;Humidity;BMP_temperature;BMP_pressure;BME280_temperature;BME280_humidity;BME280_pressure;Samples;Min_cycle;Max_cycle;Signal;HPM_P1;HPM_P2
2023/07/31 00:00:56;;;;;;;11.57;4.90;;;;;;;18.94;67.31;101021.75;5143076;27;20039;-62
2023/07/31 00:03:25;;;;;;;18.00;6.10;;;;;;;18.93;67.11;101029.09;5144348;27;20067;-61
2023/07/31 00:05:53;;;;;;;15.45;5.38;;;;;;;18.93;67.44;101026.38;5140963;27;20487;-62
2023/07/31 00:08:22;;;;;;;12.77;4.60;;;;;;;18.93;67.32;101025.56;5143466;27;20047;-61
2023/07/31 00:10:52;;;;;;;12.65;5.32;;;;;;;18.92;67.39;101030.19;5143919;27;20070;-61
2023/07/31 00:13:20;;;;;;;11.73;4.80;;;;;;;18.92;67.15;101027.47;5143273;27;20078;-61
2023/07/31 00:15:48;;;;;;;11.23;4.18;;;;;;;18.92;67.03;101026.66;5145382;27;20118;-61
2023/07/31 00:18:15;;;;;;;10.70;4.25;;;;;;;18.93;67.09;101031.00;5145847;27;20053;-60
2023/07/31 00:20:45;;;;;;;15.05;5.10;;;;;;;18.91;67.37;101022.31;5138131;27;20043;-61
2023/07/31 00:23:12;;;;;;;14.20;4.50;;;;;;;18.92;67.30;101023.94;5138662;27;20064;-61
2023/07/31 00:25:40;;;;;;;11.20;4.97;;;;;;;18.91;67.07;101011.41;5141697;27;20043;-62
2023/07/31 00:28:08;;;;;;;12.52;5.03;;;;;;;18.90;66.97;101013.31;5140791;27;20414;-61
2023/07/31 00:30:36;;;;;;;12.80;4.47;;;;;;;18.90;67.18;101017.94;5140556;27;20556;-62
2023/07/31 00:33:04;;;;;;;12.50;4.18;;;;;;;18.89;67.02;101011.69;5145157;27;20132;-62
2023/07/31 00:35:31;;;;;;;10.30;4.00;;;;;;;18.90;66.83;101009.78;5143283;27;20078;-62
2023/07/31 00:38:01;;;;;;;9.23;4.75;;;;;;;18.89;66.89;101017.13;5140311;27;20052;-63
2023/07/31 00:40:28;;;;;;;12.80;4.20;;;;;;;18.89;66.65;101006.22;5135442;27;20043;-61
2023/07/31 00:42:56;;;;;;;11.07;4.50;;;;;;;18.88;66.80;101015.50;5141696;27;20051;-61
2023/07/31 00:45:27;;;;;;;12.48;5.15;;;;;;;18.88;66.81;101006.50;5141258;27;20495;-63
2023/07/31 00:47:55;;;;;;;17.83;5.90;;;;;;;18.88;66.65;101014.69;5143046;27;20061;-61
2023/07/31 00:50:25;;;;;;;10.13;3.75;;;;;;;18.88;66.78;100998.34;5144098;27;20055;-62
2023/07/31 00:52:53;;;;;;;10.25;4.15;;;;;;;18.87;67.03;101007.59;5139656;27;20051;-63
2023/07/31 00:55:22;;;;;;;11.77;4.75;;;;;;;18.84;66.71;101007.06;5144031;27;20051;-61
2023/07/31 00:57:51;;;;;;;11.15;4.63;;;;;;;18.84;67.00;101000.78;5141447;27;20046;-61
2023/07/31 01:00:19;;;;;;;12.40;4.13;;;;;;;18.83;66.87;101007.31;5140611;27;20039;-61
2023/07/31 01:02:47;;;;;;;13.15;3.90;;;;;;;18.83;67.30;101004.59;5143868;27;20043;-61
2023/07/31 01:05:16;;;;;;;14.93;5.10;;;;;;;18.82;66.80;100994.78;5139788;27;20066;-61
2023/07/31 01:07:52;;;;;;;11.75;4.30;;;;;;;18.82;66.96;100997.53;5140094;27;20100;-61
2023/07/31 01:10:27;;;;;;;12.65;3.95;;;;;;;18.81;66.96;100996.69;5143030;27;20042;-61
2023/07/31 01:12:57;;;;;;;10.27;3.90;;;;;;;18.79;66.71;100998.88;5140680;27;20043;-62
2023/07/31 01:15:25;;;;;;;11.48;4.75;;;;;;;18.80;66.74;100999.69;5138221;27;20047;-61
2023/07/31 01:17:52;;;;;;;13.43;4.85;;;;;;;18.77;66.91;100990.16;5139077;27;20180;-61
2023/07/31 01:20:24;;;;;;;10.80;4.80;;;;;;;18.78;66.91;100997.25;5140238;27;20060;-61
2023/07/31 01:23:23;;;;;;;12.65;4.65;;;;;;;18.77;66.89;100997.53;5140746;27;20422;-62
2023/07/31 01:26:03;;;;;;;9.57;4.07;;;;;;;18.76;66.68;100993.97;5134069;27;20054;-61
2023/07/31 01:28:39;;;;;;;8.75;4.38;;;;;;;18.77;66.49;100992.06;5134609;27;20047;-62
2023/07/31 01:31:10;;;;;;;11.95;4.57;;;;;;;18.78;66.23;100994.53;5141291;27;20047;-61
2023/07/31 01:33:39;;;;;;;10.73;3.97;;;;;;;18.77;66.28;100995.63;5143792;27;20050;-62
2023/07/31 01:36:08;;;;;;;10.05;4.05;;;;;;;18.76;66.28;100990.44;5139521;27;20072;-62
2023/07/31 01:38:35;;;;;;;13.05;4.70;;;;;;;18.76;66.43;100995.88;5142812;27;20047;-61
2023/07/31 01:41:05;;;;;;;11.23;4.55;;;;;;;18.75;66.28;100994.25;5141647;27;20068;-62
2023/07/31 01:43:32;;;;;;;13.20;4.68;;;;;;;18.73;65.90;100988.25;5140993;27;20046;-62
2023/07/31 01:46:00;;;;;;;13.05;5.82;;;;;;;18.71;66.11;100988.53;5137864;27;20272;-62
2023/07/31 01:48:28;;;;;;;8.98;3.47;;;;;;;18.71;66.04;100990.44;5145619;27;20138;-62
2023/07/31 01:50:56;;;;;;;10.10;4.32;;;;;;;18.71;66.20;100987.72;5140802;27;20068;-62
2023/07/31 01:53:23;;;;;;;14.05;5.05;;;;;;;18.71;66.07;100980.38;5138596;27;20051;-62
2023/07/31 01:55:51;;;;;;;11.05;4.03;;;;;;;18.72;65.87;100981.19;5141008;27;20050;-62
2023/07/31 01:58:20;;;;;;;10.10;4.25;;;;;;;18.71;65.88;100982.28;5140457;27;20048;-62
2023/07/31 02:00:48;;;;;;;14.75;4.30;;;;;;;18.70;65.80;100977.91;5143076;27;20039;-62
2023/07/31 02:03:16;;;;;;;9.85;4.63;;;;;;;18.69;65.91;100977.09;5139230;27;20112;-62
2023/07/31 02:05:46;;;;;;;12.73;4.40;;;;;;;18.69;65.72;100973.56;5144447;27;20047;-62
2023/07/31 02:08:13;;;;;;;9.70;3.60;;;;;;;18.68;65.71;100964.56;5147938;27;20054;-62
2023/07/31 02:10:42;;;;;;;15.80;4.28;;;;;;;18.68;65.92;100958.31;5143132;27;20050;-62
2023/07/31 02:13:09;;;;;;;9.75;4.05;;;;;;;18.68;65.57;100961.03;5140917;27;20072;-62
2023/07/31 02:15:39;;;;;;;11.75;4.53;;;;;;;18.66;65.52;100955.06;5142043;27;20464;-62
2023/07/31 02:18:06;;;;;;;11.52;4.32;;;;;;;18.66;65.61;100953.16;5145062;27;20100;-62
2023/07/31 02:20:35;;;;;;;8.68;3.85;;;;;;;18.65;65.71;100953.41;5141115;27;20039;-62
2023/07/31 02:23:03;;;;;;;11.60;4.57;;;;;;;18.64;65.84;100949.06;5143607;27;20082;-62
2023/07/31 02:25:31;;;;;;;14.63;5.15;;;;;;;18.64;65.73;100946.34;5144141;27;20072;-62
2023/07/31 02:27:58;;;;;;;15.68;5.15;;;;;;;18.62;65.67;100938.44;5141382;27;20050;-61
2023/07/31 02:30:26;;;;;;;10.70;4.38;;;;;;;18.62;65.55;100938.44;5140005;27;20411;-62
2023/07/31 02:32:56;;;;;;;9.45;4.22;;;;;;;18.61;65.47;100942.25;5149832;27;20043;-62
2023/07/31 02:35:23;;;;;;;10.70;4.43;;;;;;;18.62;65.43;100934.91;5139787;27;20066;-62
2023/07/31 02:37:51;;;;;;;11.02;4.85;;;;;;;18.62;65.40;100933.00;5139757;27;20096;-62
2023/07/31 02:40:19;;;;;;;10.98;4.35;;;;;;;18.61;65.43;100936.81;5139512;27;20077;-63
2023/07/31 02:42:47;;;;;;;8.48;4.22;;;;;;;18.61;65.36;100928.66;5142249;28;20036;-60
2023/07/31 02:45:14;;;;;;;11.85;5.22;;;;;;;18.60;65.37;100921.53;5135441;27;20051;-61
2023/07/31 02:47:42;;;;;;;14.68;4.50;;;;;;;18.59;65.52;100925.34;5141806;28;20043;-62
2023/07/31 02:50:12;;;;;;;9.35;4.40;;;;;;;18.60;65.30;100937.06;5142720;27;20051;-62
2023/07/31 02:52:39;;;;;;;9.82;4.63;;;;;;;18.59;65.44;100930.78;5143282;27;20039;-62
2023/07/31 02:55:08;;;;;;;9.90;4.47;;;;;;;18.58;65.46;100918.28;5142735;27;20111;-62
2023/07/31 02:57:36;;;;;;;11.77;4.18;;;;;;;18.58;65.44;100920.19;5147309;27;20056;-61
2023/07/31 03:00:06;;;;;;;9.57;3.78;;;;;;;18.57;65.42;100922.09;5149196;27;20107;-61
2023/07/31 03:02:33;;;;;;;12.05;5.05;;;;;;;18.58;65.55;100922.91;5140029;27;20494;-61
2023/07/31 03:05:01;;;;;;;11.05;4.47;;;;;;;18.57;65.44;100911.19;5144024;27;20054;-61
2023/07/31 03:07:31;;;;;;;14.68;4.18;;;;;;;18.56;65.41;100909.56;5144432;27;20047;-61
2023/07/31 03:09:58;;;;;;;11.50;4.50;;;;;;;18.57;65.41;100913.09;5144893;27;20043;-61
2023/07/31 03:12:26;;;;;;;12.30;4.82;;;;;;;18.56;65.32;100920.44;5142305;27;20036;-61
2023/07/31 03:14:54;;;;;;;12.88;5.03;;;;;;;18.53;65.62;100916.38;5141334;27;20123;-61
2023/07/31 03:17:22;;;;;;;12.50;4.63;;;;;;;18.52;65.49;100917.47;5141668;27;20050;-61
2023/07/31 03:19:49;;;;;;;12.40;4.85;;;;;;;18.52;65.72;100924.81;5143617;27;20508;-61
2023/07/31 03:22:17;;;;;;;8.05;3.88;;;;;;;18.51;65.78;100915.00;5144868;27;20084;-61
2023/07/31 03:24:46;;;;;;;12.05;4.72;;;;;;;18.50;65.68;100916.91;5144547;27;20077;-61
2023/07/31 03:27:14;;;;;;;8.95;4.30;;;;;;;18.49;65.78;100918.00;5142950;27;20047;-61
2023/07/31 03:29:42;;;;;;;14.05;5.30;;;;;;;18.50;65.88;100916.09;5143727;27;20043;-62
2023/07/31 03:32:10;;;;;;;11.13;4.28;;;;;;;18.49;65.93;100912.56;5142224;27;20191;-62
2023/07/31 03:34:38;;;;;;;10.88;4.07;;;;;;;18.48;65.85;100901.94;5141519;27;20095;-62
2023/07/31 03:37:06;;;;;;;11.35;4.80;;;;;;;18.48;65.84;100899.22;5144201;27;20039;-62
2023/07/31 03:39:34;;;;;;;16.00;6.13;;;;;;;18.47;65.84;100895.69;5143793;27;20096;-62
2023/07/31 03:42:03;;;;;;;9.95;4.40;;;;;;;18.48;65.72;100896.50;5143459;27;20079;-61
2023/07/31 03:44:31;;;;;;;11.38;5.30;;;;;;;18.47;65.94;100890.25;5142956;27;20069;-62
2023/07/31 03:46:59;;;;;;;12.63;3.83;;;;;;;18.47;65.76;100887.53;5141295;27;20047;-62
2023/07/31 03:49:27;;;;;;;12.13;4.97;;;;;;;18.47;65.98;100886.69;5143813;27;20043;-62
2023/07/31 03:51:55;;;;;;;7.50;4.15;;;;;;;18.46;65.93;100893.25;5136204;27;20035;-62
2023/07/31 03:54:22;;;;;;;12.73;4.28;;;;;;;18.45;65.77;100883.44;5143959;27;20058;-61
2023/07/31 03:56:50;;;;;;;12.07;4.30;;;;;;;18.44;65.80;100882.63;5144325;27;20050;-63
2023/07/31 03:59:19;;;;;;;12.32;4.25;;;;;;;18.47;65.50;100876.63;5143288;27;20072;-61
2023/07/31 04:01:47;;;;;;;9.70;4.38;;;;;;;18.47;65.54;100881.25;5142947;27;20069;-63
2023/07/31 04:04:15;;;;;;;11.63;4.38;;;;;;;18.47;65.33;100873.09;5145135;27;20051;-61
2023/07/31 04:06:43;;;;;;;8.65;4.35;;;;;;;18.46;65.42;100855.94;5143944;27;20043;-62
2023/07/31 04:09:10;;;;;;;9.57;4.40;;;;;;;18.45;65.41;100854.31;5146072;27;20103;-63
2023/07/31 04:11:39;;;;;;;7.90;3.80;;;;;;;18.48;65.32;100861.13;5144656;27;20069;-62
2023/07/31 04:14:06;;;;;;;11.52;3.95;;;;;;;18.47;65.50;100857.59;5139009;27;20046;-63
2023/07/31 04:16:35;;;;;;;12.15;3.70;;;;;;;18.46;65.76;100844.25;5141773;27;20047;-63
2023/07/31 04:19:04;;;;;;;9.10;4.03;;;;;;;18.46;65.45;100838.81;5145152;27;20051;-62
2023/07/31 04:21:32;;;;;;;10.13;3.97;;;;;;;18.44;65.80;100843.72;5146605;27;20047;-62
2023/07/31 04:24:00;;;;;;;9.07;4.10;;;;;;;18.46;65.68;100846.97;5144550;27;20083;-63
2023/07/31 04:26:27;;;;;;;11.80;4.15;;;;;;;18.46;65.63;100841.53;5145635;27;20068;-61
2023/07/31 04:28:55;;;;;;;11.98;4.35;;;;;;;18.45;65.29;100838.00;5143997;27;20051;-61
2023/07/31 04:31:23;;;;;;;11.23;3.80;;;;;;;18.45;65.82;100838.00;5143767;27;20047;-60
2023/07/31 04:33:52;;;;;;;13.40;4.80;;;;;;;18.45;65.86;100834.47;4791017;27;10000317;-61
2023/07/31 04:36:20;;;;;;;12.10;4.63;;;;;;;18.45;65.61;100832.53;5142672;27;20108;-61
2023/07/31 04:38:48;;;;;;;9.27;3.72;;;;;;;18.45;65.50;100831.72;5138421;27;20103;-61
2023/07/31 04:41:16;;;;;;;10.52;4.35;;;;;;;18.44;65.61;100830.09;5139086;27;20575;-61
2023/07/31 04:43:43;;;;;;;9.18;3.47;;;;;;;18.44;65.75;100819.22;5140474;27;20096;-61
2023/07/31 04:46:11;;;;;;;9.40;3.78;;;;;;;18.44;65.66;100820.03;5137871;27;20105;-62
2023/07/31 04:48:39;;;;;;;9.93;4.45;;;;;;;18.44;65.73;100817.31;5141056;27;20058;-61
2023/07/31 04:51:09;;;;;;;12.35;4.43;;;;;;;18.47;65.53;100824.09;5139503;27;20084;-62
2023/07/31 04:53:37;;;;;;;12.30;4.30;;;;;;;18.44;65.45;100819.22;5138111;27;20073;-62
2023/07/31 04:56:05;;;;;;;7.65;3.80;;;;;;;18.44;65.88;100821.94;5139938;27;20064;-62
2023/07/31 04:58:33;;;;;;;11.77;4.00;;;;;;;18.45;65.83;100812.69;5144060;27;20043;-62
2023/07/31 05:01:01;;;;;;;10.40;4.15;;;;;;;18.44;65.68;100808.34;5137749;27;20056;-62
2023/07/31 05:03:29;;;;;;;8.13;3.90;;;;;;;18.43;65.79;100810.25;5139370;27;20138;-62
2023/07/31 05:05:56;;;;;;;8.73;3.85;;;;;;;18.44;65.84;100811.88;5137984;27;20184;-63
2023/07/31 05:08:26;;;;;;;8.38;2.95;;;;;;;18.44;66.10;100805.59;5138806;27;20575;-63
2023/07/31 05:10:53;;;;;;;6.38;3.63;;;;;;;18.43;65.86;100803.97;5138534;27;20047;-63
2023/07/31 05:13:21;;;;;;;6.30;3.20;;;;;;;18.42;66.22;100803.16;5141222;27;20069;-63
2023/07/31 05:15:50;;;;;;;8.48;3.28;;;;;;;18.42;65.83;100800.44;5138003;27;20046;-62
2023/07/31 05:18:18;;;;;;;9.60;4.20;;;;;;;18.42;66.24;100794.19;5141240;27;20048;-63
2023/07/31 05:20:45;;;;;;;10.80;3.78;;;;;;;18.41;66.53;100804.25;5137685;27;20179;-63
2023/07/31 05:23:13;;;;;;;10.98;4.07;;;;;;;18.40;67.05;100799.09;5141309;27;20050;-63
2023/07/31 05:25:42;;;;;;;6.32;3.42;;;;;;;18.41;66.86;100796.09;5138007;27;20118;-63
2023/07/31 05:28:10;;;;;;;8.10;3.95;;;;;;;18.39;66.92;100798.28;5142392;27;20054;-62
2023/07/31 05:30:38;;;;;;;7.88;3.90;;;;;;;18.39;67.10;100792.81;5139464;27;20347;-62
2023/07/31 05:33:06;;;;;;;7.13;3.55;;;;;;;18.39;67.17;100795.53;5139468;27;20057;-65
2023/07/31 05:35:34;;;;;;;9.80;3.53;;;;;;;18.38;67.26;100801.25;5139366;27;20053;-64
2023/07/31 05:38:01;;;;;;;6.25;3.00;;;;;;;18.38;67.13;100784.94;5141420;27;20073;-66
2023/07/31 05:40:29;;;;;;;8.02;3.22;;;;;;;18.38;67.27;100790.38;5135868;27;20059;-64
2023/07/31 05:42:58;;;;;;;12.27;3.40;;;;;;;18.38;67.42;100780.31;5141099;27;20039;-64
2023/07/31 05:45:26;;;;;;;7.10;3.13;;;;;;;18.37;67.11;100778.69;5140608;27;20083;-63
2023/07/31 05:47:54;;;;;;;7.13;3.03;;;;;;;18.38;66.89;100793.09;5141152;27;20074;-64
2023/07/31 05:50:22;;;;;;;8.43;3.47;;;;;;;18.37;67.02;100792.28;5138958;27;20039;-63
2023/07/31 05:52:49;;;;;;;7.20;3.20;;;;;;;18.38;67.15;100793.09;5145854;27;20046;-63
2023/07/31 05:55:18;;;;;;;7.20;3.40;;;;;;;18.49;66.50;100792.00;5137210;27;20492;-64
2023/07/31 05:57:46;;;;;;;6.88;3.08;;;;;;;18.49;66.49;100784.63;5139915;27;20058;-63
2023/07/31 06:00:15;;;;;;;6.82;3.17;;;;;;;18.49;66.51;100783.81;5140219;27;20039;-63
2023/07/31 06:02:43;;;;;;;6.15;3.10;;;;;;;18.46;66.96;100778.94;5142551;27;20045;-63
2023/07/31 06:05:11;;;;;;;5.57;2.70;;;;;;;18.45;66.71;100774.59;5141089;27;20578;-62
2023/07/31 06:07:39;;;;;;;6.35;3.00;;;;;;;18.45;67.04;100766.41;5139198;27;20070;-62
2023/07/31 06:10:08;;;;;;;7.80;3.08;;;;;;;18.44;67.04;100768.31;5141174;27;20103;-62
2023/07/31 06:12:36;;;;;;;6.13;2.88;;;;;;;18.44;67.09;100764.78;5142389;27;20051;-62
2023/07/31 06:15:05;;;;;;;4.88;2.65;;;;;;;18.44;66.94;100768.31;5141445;27;20051;-63
2023/07/31 06:17:34;;;;;;;4.20;2.42;;;;;;;18.44;67.07;100764.78;5148188;27;20043;-63
2023/07/31 06:20:04;;;;;;;3.67;2.20;;;;;;;18.44;67.17;100762.88;5145814;27;20040;-62
2023/07/31 06:22:32;;;;;;;8.00;2.95;;;;;;;18.42;67.57;100753.38;5143641;27;20051;-62
2023/07/31 06:25:00;;;;;;;9.00;2.78;;;;;;;18.43;67.07;100755.00;5140236;27;20050;-62
2023/07/31 06:27:28;;;;;;;5.72;2.47;;;;;;;18.44;67.12;100752.00;5145019;27;20091;-62
2023/07/31 06:29:56;;;;;;;4.13;2.53;;;;;;;18.45;67.11;100758.25;5140820;27;20039;-62
2023/07/31 06:32:23;;;;;;;5.53;2.75;;;;;;;18.43;67.24;100747.66;5138925;27;20039;-61
2023/07/31 06:34:54;;;;;;;7.40;2.85;;;;;;;18.43;67.05;100746.84;5142853;27;20058;-61
2023/07/31 06:37:21;;;;;;;4.93;2.90;;;;;;;18.43;67.41;100753.09;5133784;27;20506;-62
2023/07/31 06:39:49;;;;;;;3.88;2.53;;;;;;;18.45;67.52;100741.94;5140986;28;20088;-61
2023/07/31 06:42:17;;;;;;;6.18;3.33;;;;;;;18.58;67.43;100740.53;5142746;27;20055;-62
2023/07/31 06:44:45;;;;;;;3.90;2.60;;;;;;;18.68;67.67;100743.25;5142565;27;20055;-62
2023/07/31 06:47:12;;;;;;;6.93;2.47;;;;;;;18.67;67.74;100733.44;5138612;27;20492;-62
2023/07/31 06:49:40;;;;;;;5.10;2.80;;;;;;;18.61;67.28;100737.28;5134640;27;20047;-63
2023/07/31 06:52:11;;;;;;;4.53;2.42;;;;;;;18.56;67.99;100737.28;5142691;27;20043;-63
2023/07/31 06:54:38;;;;;;;3.70;2.20;;;;;;;18.66;67.90;100729.91;5137328;27;20423;-63
2023/07/31 06:57:07;;;;;;;3.35;2.38;;;;;;;18.58;67.58;100729.63;5140731;28;20051;-63
2023/07/31 06:59:35;;;;;;;4.40;2.15;;;;;;;18.56;67.81;100729.09;5141983;28;20047;-62
2023/07/31 07:02:03;;;;;;;5.65;2.60;;;;;;;18.61;67.63;100726.41;5139407;27;20107;-62
2023/07/31 07:04:33;;;;;;;4.28;2.30;;;;;;;18.55;67.60;100741.91;5143200;27;20047;-62
2023/07/31 07:07:01;;;;;;;4.93;2.40;;;;;;;18.62;67.64;100741.63;5138943;27;20044;-62
2023/07/31 07:09:30;;;;;;;4.28;2.33;;;;;;;18.61;67.80;100734.56;5139108;27;20107;-61
2023/07/31 07:11:58;;;;;;;4.53;2.25;;;;;;;18.53;67.95;100731.28;5139797;27;20043;-61
2023/07/31 07:14:26;;;;;;;4.60;2.45;;;;;;;18.54;68.00;100730.19;5135583;28;20419;-61
2023/07/31 07:16:54;;;;;;;6.30;2.20;;;;;;;18.53;68.48;100725.84;5136642;27;20047;-64
2023/07/31 07:19:21;;;;;;;2.95;1.90;;;;;;;18.59;68.19;100729.38;5138947;28;20057;-62
2023/07/31 07:21:49;;;;;;;3.13;2.20;;;;;;;18.60;68.29;100711.94;5138160;27;20047;-62
2023/07/31 07:24:17;;;;;;;4.20;2.30;;;;;;;18.58;68.28;100713.31;5139568;28;20039;-63
2023/07/31 07:26:46;;;;;;;3.88;2.10;;;;;;;18.72;68.02;100708.94;5139036;28;20047;-61
2023/07/31 07:29:14;;;;;;;3.85;2.00;;;;;;;18.76;68.44;100705.38;5137965;27;20047;-62
2023/07/31 07:31:42;;;;;;;3.15;2.13;;;;;;;18.62;68.20;100709.78;5136500;27;20505;-62
2023/07/31 07:34:10;;;;;;;4.82;2.40;;;;;;;18.73;68.17;100710.56;5139738;27;20062;-67
2023/07/31 07:36:37;;;;;;;4.18;2.90;;;;;;;18.59;68.24;100693.97;5136127;27;20111;-62
2023/07/31 07:39:07;;;;;;;4.47;2.22;;;;;;;18.57;68.44;100706.22;5146163;27;20071;-62
2023/07/31 07:41:34;;;;;;;4.85;2.42;;;;;;;18.53;68.67;100714.97;5150737;27;20069;-62
2023/07/31 07:44:04;;;;;;;4.13;1.98;;;;;;;18.54;68.63;100716.59;5143486;27;20050;-62
2023/07/31 07:46:32;;;;;;;3.88;2.20;;;;;;;18.52;68.58;100716.06;5137476;27;20066;-62
2023/07/31 07:48:59;;;;;;;3.90;1.98;;;;;;;18.57;68.39;100719.84;5136420;27;20453;-62
2023/07/31 07:51:29;;;;;;;3.55;2.25;;;;;;;18.59;68.44;100714.94;5145278;27;20050;-62
2023/07/31 07:53:57;;;;;;;4.60;2.10;;;;;;;18.76;68.71;100718.97;5134501;27;20047;-62
2023/07/31 07:56:26;;;;;;;6.43;2.20;;;;;;;18.62;68.14;100708.97;5143240;27;20092;-62
2023/07/31 07:58:55;;;;;;;5.95;2.40;;;;;;;18.64;68.27;100717.66;5148977;27;20064;-62
2023/07/31 08:01:24;;;;;;;4.85;2.40;;;;;;;18.65;68.49;100716.56;5140682;27;20100;-61
2023/07/31 08:03:52;;;;;;;7.22;3.17;;;;;;;18.61;68.75;100707.34;5144572;27;20062;-61
2023/07/31 08:06:20;;;;;;;5.03;2.83;;;;;;;18.58;68.91;100716.84;5143175;27;20062;-62
2023/07/31 08:08:47;;;;;;;8.30;2.88;;;;;;;18.58;68.73;100718.75;5146362;27;20174;-62
2023/07/31 08:11:15;;;;;;;6.70;2.78;;;;;;;18.57;68.73;100707.06;5142915;27;20100;-62
2023/07/31 08:13:43;;;;;;;5.97;2.92;;;;;;;18.57;68.64;100709.78;5140636;27;21012;-63
2023/07/31 08:16:11;;;;;;;5.60;2.28;;;;;;;18.57;68.83;100711.69;5149250;27;20725;-63
2023/07/31 08:18:42;;;;;;;8.20;2.78;;;;;;;18.57;68.46;100703.50;5141322;27;20054;-63
2023/07/31 08:21:10;;;;;;;5.25;2.72;;;;;;;18.55;68.68;100703.78;5154101;27;20111;-63
2023/07/31 08:23:38;;;;;;;7.25;3.05;;;;;;;18.56;68.89;100720.94;5140413;27;20055;-62
2023/07/31 08:26:05;;;;;;;5.78;3.28;;;;;;;18.56;68.62;100699.97;5141143;27;20055;-63
2023/07/31 08:28:34;;;;;;;5.95;2.90;;;;;;;18.62;68.64;100708.97;5142424;27;20047;-62
2023/07/31 08:31:02;;;;;;;4.88;2.40;;;;;;;18.64;69.05;100707.59;5147476;27;20130;-63
2023/07/31 08:33:30;;;;;;;6.93;2.70;;;;;;;18.67;68.80;100703.50;5139173;27;20410;-63
2023/07/31 08:36:01;;;;;;;6.38;3.03;;;;;;;18.71;68.81;100705.38;5140208;27;20072;-62
2023/07/31 08:38:29;;;;;;;5.00;3.05;;;;;;;18.74;68.36;100707.56;5145261;27;20069;-63
2023/07/31 08:40:57;;;;;;;6.07;3.28;;;;;;;18.76;68.48;100702.63;5135202;27;20081;-62
2023/07/31 08:43:27;;;;;;;5.43;3.17;;;;;;;18.74;68.71;100710.28;5137034;27;20055;-63
2023/07/31 08:45:55;;;;;;;6.53;2.97;;;;;;;18.72;68.71;100698.03;5137379;27;20043;-62
2023/07/31 08:48:24;;;;;;;7.47;3.08;;;;;;;18.74;68.91;100702.09;5149174;27;20072;-62
2023/07/31 08:50:52;;;;;;;5.22;2.70;;;;;;;18.74;68.74;100702.09;5141804;27;20051;-62
2023/07/31 08:53:22;;;;;;;7.20;3.05;;;;;;;18.81;68.62;100699.09;5142685;27;20047;-62
2023/07/31 08:55:50;;;;;;;7.43;3.42;;;;;;;18.81;68.90;100708.06;5144509;27;20095;-62
2023/07/31 08:58:19;;;;;;;6.55;3.38;;;;;;;18.89;68.63;100694.97;5137131;27;20123;-61
2023/07/31 09:00:48;;;;;;;6.63;2.53;;;;;;;18.84;68.50;100702.06;5140337;27;20468;-62
2023/07/31 09:03:19;;;;;;;5.97;3.08;;;;;;;18.82;68.44;100706.16;5143968;27;20096;-62
2023/07/31 09:05:48;;;;;;;5.50;2.40;;;;;;;18.81;68.60;100697.16;5141435;27;20327;-62
2023/07/31 09:08:19;;;;;;;6.57;3.03;;;;;;;18.80;68.63;100695.53;5142953;27;20039;-62
2023/07/31 09:10:49;;;;;;;9.35;3.60;;;;;;;18.80;68.75;100702.91;5140964;27;20138;-62
2023/07/31 09:13:17;;;;;;;8.27;3.55;;;;;;;18.78;68.76;100702.38;5140797;27;20047;-62
2023/07/31 09:15:47;;;;;;;11.95;3.17;;;;;;;18.77;69.03;100698.81;5140313;27;20799;-62
2023/07/31 09:18:18;;;;;;;6.97;2.60;;;;;;;18.77;68.77;100700.72;5141908;27;20148;-62
2023/07/31 09:20:46;;;;;;;5.63;2.95;;;;;;;18.77;68.92;100687.94;5140076;27;20043;-63
2023/07/31 09:23:16;;;;;;;6.78;3.10;;;;;;;18.75;68.86;100690.13;5140333;27;20051;-63
2023/07/31 09:25:45;;;;;;;6.97;2.97;;;;;;;18.75;68.86;100684.69;5139432;27;20043;-63
2023/07/31 09:28:14;;;;;;;5.53;2.50;;;;;;;18.74;68.99;100684.97;5138867;27;20074;-63
2023/07/31 09:30:48;;;;;;;7.57;3.15;;;;;;;18.82;69.12;100679.75;5139382;27;20047;-63
2023/07/31 09:33:16;;;;;;;4.95;2.88;;;;;;;18.78;69.30;100670.50;5137599;27;20054;-62
2023/07/31 09:35:45;;;;;;;7.38;2.70;;;;;;;18.76;68.96;100678.13;5136888;27;20072;-63
2023/07/31 09:38:14;;;;;;;4.82;2.67;;;;;;;18.76;68.82;100680.84;5137404;27;20047;-62
2023/07/31 09:40:44;;;;;;;6.90;3.20;;;;;;;18.87;69.09;100680.81;5136678;27;20059;-62
2023/07/31 09:43:14;;;;;;;4.18;2.40;;;;;;;18.81;68.82;100674.56;5136817;27;20108;-67
2023/07/31 09:45:43;;;;;;;7.85;3.15;;;;;;;18.79;69.56;100682.22;5136427;27;20035;-62
2023/07/31 09:48:12;;;;;;;6.28;2.92;;;;;;;18.83;69.91;100669.66;5137721;27;20042;-62
2023/07/31 09:50:43;;;;;;;4.90;2.72;;;;;;;18.80;69.56;100679.22;5139169;27;20055;-62
2023/07/31 09:53:11;;;;;;;6.07;2.70;;;;;;;18.77;69.38;100668.06;5141973;27;20526;-64
2023/07/31 09:55:40;;;;;;;5.70;2.92;;;;;;;18.78;69.15;100675.13;5135014;27;20492;-62
2023/07/31 09:58:10;;;;;;;6.45;3.05;;;;;;;18.77;69.68;100678.94;5136083;27;20057;-63
2023/07/31 10:00:39;;;;;;;7.97;2.85;;;;;;;18.80;69.28;100665.59;5135849;27;20050;-63
2023/07/31 10:03:08;;;;;;;5.68;2.80;;;;;;;18.77;69.95;100668.88;5134065;27;20043;-62
2023/07/31 10:05:37;;;;;;;4.97;2.30;;;;;;;18.78;69.94;100673.22;5134464;27;20046;-63
2023/07/31 10:08:08;;;;;;;4.07;2.40;;;;;;;18.77;69.74;100668.88;5138291;27;20074;-63
2023/07/31 10:10:37;;;;;;;5.25;2.55;;;;;;;18.89;69.15;100668.53;5137493;27;20061;-63
2023/07/31 10:13:06;;;;;;;5.63;2.75;;;;;;;18.83;69.78;100666.94;5139535;27;20046;-63
2023/07/31 10:15:35;;;;;;;4.13;2.22;;;;;;;18.99;68.85;100667.66;5136023;27;20050;-63
2023/07/31 10:18:07;;;;;;;5.65;2.70;;;;;;;18.89;69.42;100662.28;5135653;27;20055;-64
2023/07/31 10:20:36;;;;;;;4.05;2.35;;;;;;;18.85;69.52;100673.72;5139056;27;20417;-65
2023/07/31 10:23:04;;;;;;;7.05;2.60;;;;;;;18.83;70.00;100654.13;5141384;27;20065;-63
2023/07/31 10:25:33;;;;;;;5.60;2.70;;;;;;;18.96;70.17;100660.06;5144725;27;20116;-63
2023/07/31 10:28:01;;;;;;;8.10;3.00;;;;;;;18.88;69.89;100657.94;5136038;27;20079;-62
2023/07/31 10:30:33;;;;;;;9.77;3.28;;;;;;;18.90;70.27;100653.81;5137791;27;20053;-62
2023/07/31 10:33:02;;;;;;;6.57;2.75;;;;;;;18.88;69.68;100663.38;5137596;27;20047;-62
2023/07/31 10:35:32;;;;;;;4.97;2.72;;;;;;;18.98;70.21;100661.41;5135338;27;20071;-62
2023/07/31 10:38:11;;;;;;;6.60;3.05;;;;;;;18.93;69.49;100666.88;5134406;27;20220;-63
2023/07/31 10:40:39;;;;;;;5.32;2.58;;;;;;;19.03;69.78;100664.09;5135593;27;20088;-62
2023/07/31 10:43:08;;;;;;;3.97;2.30;;;;;;;19.01;69.75;100660.84;5137986;28;20088;-62
2023/07/31 10:45:37;;;;;;;5.10;2.20;;;;;;;19.06;69.08;100668.16;5134065;28;20047;-63
2023/07/31 10:48:06;;;;;;;6.75;2.60;;;;;;;19.01;69.54;100665.47;5134170;27;20397;-63
2023/07/31 10:50:38;;;;;;;6.97;3.38;;;;;;;18.93;70.08;100666.88;5137625;28;20146;-65
2023/07/31 10:53:07;;;;;;;3.17;2.13;;;;;;;19.18;69.17;100658.50;5138543;28;20081;-64
2023/07/31 10:55:41;;;;;;;8.50;2.50;;;;;;;19.13;69.24;100671.34;5133691;28;20043;-66
2023/07/31 10:58:11;;;;;;;5.30;2.50;;;;;;;18.99;70.02;100659.50;5135017;28;20055;-66
2023/07/31 11:00:39;;;;;;;4.97;2.75;;;;;;;18.95;70.28;100667.41;5133599;28;20072;-66
2023/07/31 11:03:10;;;;;;;5.95;2.75;;;;;;;18.92;70.31;100648.91;5136646;28;20058;-64
2023/07/31 11:05:54;;;;;;;5.30;2.78;;;;;;;18.92;70.90;100654.34;5133634;27;20575;-65
2023/07/31 11:08:24;;;;;;;5.30;2.40;;;;;;;18.91;70.30;100651.91;5131476;28;20047;-65
2023/07/31 11:11:05;;;;;;;6.25;2.20;;;;;;;18.90;70.59;100653.81;5134542;27;20047;-64
2023/07/31 11:13:41;;;;;;;5.05;2.72;;;;;;;19.03;69.91;100655.09;5140896;27;20051;-65
2023/07/31 11:16:09;;;;;;;6.22;2.60;;;;;;;18.98;70.69;100655.94;5143942;27;20051;-66
2023/07/31 11:18:39;;;;;;;5.60;2.67;;;;;;;18.94;70.85;100659.53;5144812;27;20058;-65
2023/07/31 11:21:09;;;;;;;5.93;3.10;;;;;;;18.95;70.68;100650.25;4783118;27;10000667;-66
2023/07/31 11:23:38;;;;;;;5.20;2.72;;;;;;;18.91;70.54;100643.75;5140279;27;20051;-67
2023/07/31 11:26:07;;;;;;;6.43;2.60;;;;;;;19.03;70.61;100639.56;5139371;27;20423;-66
2023/07/31 11:28:36;;;;;;;5.20;2.83;;;;;;;18.98;70.25;100644.25;5137722;27;20035;-65